Private Wetterstation Sandau
Wetterdaten: Mittwoch, 10.10.2012
Datum Zeit Temp. A. Feuchte A. Luftdruck Regen Wind Richtung Richtung Taupunkt Windchill
10.10.2012 00:01 6,2 C 84 % 1013,9 hPa 0,0 l/m 7,2 km/h (2 Bft) W-NW 292 3,7 C 4,8 C
10.10.2012 00:06 6,2 C 84 % 1014,0 hPa 0,0 l/m 3,2 km/h (1 Bft) W-SW 247 3,7 C 6,2 C
10.10.2012 00:11 6,1 C 84 % 1013,8 hPa 0,0 l/m 6,5 km/h (2 Bft) NW 315 3,6 C 4,8 C
10.10.2012 00:16 6,1 C 84 % 1013,9 hPa 0,0 l/m 5,0 km/h (1 Bft) W-NW 292 3,6 C 5,3 C
10.10.2012 00:21 6,0 C 84 % 1014,0 hPa 0,0 l/m 3,2 km/h (1 Bft) W-SW 247 3,5 C 6,0 C
10.10.2012 00:26 5,9 C 84 % 1014,0 hPa 0,0 l/m 5,4 km/h (1 Bft) W-NW 292 3,4 C 5,0 C
10.10.2012 00:31 5,9 C 85 % 1014,1 hPa 0,0 l/m 2,2 km/h (1 Bft) W 270 3,6 C 5,9 C
10.10.2012 00:36 5,9 C 85 % 1014,0 hPa 0,0 l/m 8,3 km/h (2 Bft) W 270 3,6 C 4,1 C
10.10.2012 00:41 5,8 C 85 % 1013,9 hPa 0,0 l/m 3,6 km/h (1 Bft) W 270 3,5 C 5,8 C
10.10.2012 00:46 5,8 C 85 % 1014,0 hPa 0,0 l/m 4,7 km/h (1 Bft) W-SW 247 3,5 C 5,1 C
10.10.2012 00:51 5,6 C 85 % 1014,1 hPa 0,0 l/m 2,2 km/h (1 Bft) W-SW 247 3,3 C 5,6 C
10.10.2012 00:56 5,6 C 85 % 1014,1 hPa 0,0 l/m 6,1 km/h (2 Bft) W-SW 247 3,3 C 4,4 C
10.10.2012 01:01 5,6 C 85 % 1014,1 hPa 0,0 l/m 4,0 km/h (1 Bft) W 270 3,3 C 5,6 C
10.10.2012 01:06 5,5 C 86 % 1014,1 hPa 0,0 l/m 4,0 km/h (1 Bft) W 270 3,3 C 5,5 C
10.10.2012 01:11 5,4 C 86 % 1014,2 hPa 0,0 l/m 3,6 km/h (1 Bft) W-NW 292 3,3 C 5,4 C
10.10.2012 01:16 5,4 C 86 % 1014,3 hPa 0,0 l/m 2,2 km/h (1 Bft) W 270 3,3 C 5,4 C
10.10.2012 01:21 5,4 C 86 % 1014,2 hPa 0,0 l/m 11,2 km/h (2 Bft) W 270 3,3 C 2,9 C
10.10.2012 01:26 5,3 C 86 % 1014,0 hPa 0,0 l/m 5,0 km/h (1 Bft) W-NW 292 3,2 C 4,4 C
10.10.2012 01:31 5,3 C 86 % 1014,1 hPa 0,0 l/m 1,8 km/h (1 Bft) W-NW 292 3,2 C 5,3 C
10.10.2012 01:36 5,2 C 86 % 1014,1 hPa 0,0 l/m 5,8 km/h (2 Bft) NW 315 3,1 C 4,0 C
10.10.2012 01:41 5,2 C 86 % 1014,3 hPa 0,0 l/m 0,0 km/h (0 Bft) W 270 3,1 C 5,2 C
10.10.2012 01:46 5,2 C 87 % 1014,5 hPa 0,0 l/m 2,5 km/h (1 Bft) W-NW 292 3,2 C 5,2 C
10.10.2012 01:51 5,2 C 87 % 1014,4 hPa 0,0 l/m 3,6 km/h (1 Bft) W 270 3,2 C 5,2 C
10.10.2012 01:56 5,2 C 87 % 1014,3 hPa 0,0 l/m 6,5 km/h (2 Bft) W-SW 247 3,2 C 3,8 C
10.10.2012 02:01 5,2 C 87 % 1014,3 hPa 0,0 l/m 1,4 km/h (1 Bft) W-NW 292 3,2 C 5,2 C
10.10.2012 02:06 5,2 C 87 % 1014,4 hPa 0,0 l/m 8,6 km/h (2 Bft) W-NW 292 3,2 C 3,2 C
10.10.2012 02:11 5,1 C 87 % 1014,3 hPa 0,0 l/m 6,1 km/h (2 Bft) NW 315 3,1 C 3,8 C
10.10.2012 02:16 5,1 C 87 % 1014,5 hPa 0,0 l/m 3,6 km/h (1 Bft) W 270 3,1 C 5,1 C
10.10.2012 02:21 5,1 C 87 % 1014,4 hPa 0,0 l/m 4,7 km/h (1 Bft) W-NW 292 3,1 C 4,3 C
10.10.2012 02:26 5,0 C 87 % 1014,5 hPa 0,0 l/m 3,6 km/h (1 Bft) W-NW 292 3,0 C 5,0 C
10.10.2012 02:31 5,0 C 87 % 1014,3 hPa 0,0 l/m 4,0 km/h (1 Bft) W-NW 292 3,0 C 5,0 C
10.10.2012 02:36 4,9 C 87 % 1014,1 hPa 0,0 l/m 2,9 km/h (1 Bft) W 270 2,9 C 4,9 C
10.10.2012 02:41 4,9 C 87 % 1014,1 hPa 0,0 l/m 1,1 km/h (1 Bft) W-NW 292 2,9 C 4,9 C
10.10.2012 02:46 4,9 C 88 % 1014,1 hPa 0,0 l/m 5,8 km/h (2 Bft) W 270 3,1 C 3,7 C
10.10.2012 02:51 4,8 C 88 % 1014,1 hPa 0,0 l/m 2,5 km/h (1 Bft) W 270 3,0 C 4,8 C
10.10.2012 02:56 4,8 C 88 % 1014,2 hPa 0,0 l/m 3,2 km/h (1 Bft) W 270 3,0 C 4,8 C
10.10.2012 03:01 4,8 C 88 % 1014,3 hPa 0,0 l/m 2,2 km/h (1 Bft) W 270 3,0 C 4,8 C
10.10.2012 03:06 4,8 C 88 % 1014,1 hPa 0,0 l/m 1,8 km/h (1 Bft) W-NW 292 3,0 C 4,8 C
10.10.2012 03:11 4,8 C 88 % 1014,2 hPa 0,0 l/m 6,1 km/h (2 Bft) W 270 3,0 C 3,5 C
10.10.2012 03:16 4,8 C 88 % 1014,2 hPa 0,0 l/m 2,2 km/h (1 Bft) W 270 3,0 C 4,8 C
10.10.2012 03:21 4,7 C 88 % 1014,2 hPa 0,0 l/m 2,9 km/h (1 Bft) W-NW 292 2,9 C 4,7 C
10.10.2012 03:26 4,7 C 88 % 1014,2 hPa 0,0 l/m 8,3 km/h (2 Bft) W 270 2,9 C 2,7 C
10.10.2012 03:31 4,7 C 88 % 1014,3 hPa 0,0 l/m 6,5 km/h (2 Bft) W-SW 247 2,9 C 3,2 C
10.10.2012 03:36 4,6 C 88 % 1014,2 hPa 0,0 l/m 2,5 km/h (1 Bft) W 270 2,8 C 4,6 C
10.10.2012 03:41 4,6 C 89 % 1014,3 hPa 0,0 l/m 5,0 km/h (1 Bft) W 270 2,9 C 3,6 C
10.10.2012 03:46 4,6 C 89 % 1014,4 hPa 0,0 l/m 2,9 km/h (1 Bft) W 270 2,9 C 4,6 C
10.10.2012 03:51 4,6 C 89 % 1014,5 hPa 0,0 l/m 3,2 km/h (1 Bft) W-SW 247 2,9 C 4,6 C
10.10.2012 03:56 4,5 C 89 % 1014,4 hPa 0,0 l/m 1,4 km/h (1 Bft) W-NW 292 2,8 C 4,5 C
10.10.2012 04:01 4,5 C 89 % 1014,3 hPa 0,0 l/m 0,0 km/h (0 Bft) NW 315 2,8 C 4,5 C
10.10.2012 04:06 4,6 C 89 % 1014,3 hPa 0,0 l/m 2,2 km/h (1 Bft) W 270 2,9 C 4,6 C
10.10.2012 04:11 4,5 C 89 % 1014,2 hPa 0,0 l/m 0,0 km/h (0 Bft) W 270 2,8 C 4,5 C
10.10.2012 04:16 4,6 C 89 % 1014,2 hPa 0,0 l/m 1,4 km/h (1 Bft) W 270 2,9 C 4,6 C
10.10.2012 04:21 4,6 C 89 % 1014,2 hPa 0,0 l/m 2,5 km/h (1 Bft) W 270 2,9 C 4,6 C
10.10.2012 04:26 4,5 C 89 % 1014,2 hPa 0,0 l/m 5,4 km/h (1 Bft) W 270 2,8 C 3,4 C
10.10.2012 04:31 4,5 C 89 % 1014,2 hPa 0,0 l/m 7,2 km/h (2 Bft) W 270 2,8 C 2,8 C
10.10.2012 04:36 4,5 C 89 % 1014,2 hPa 0,0 l/m 0,0 km/h (0 Bft) W-SW 247 2,8 C 4,5 C
10.10.2012 04:41 4,4 C 89 % 1014,1 hPa 0,0 l/m 7,6 km/h (2 Bft) W 270 2,7 C 2,5 C
10.10.2012 04:46 4,4 C 89 % 1014,0 hPa 0,0 l/m 8,6 km/h (2 Bft) W 270 2,7 C 2,3 C
10.10.2012 04:51 4,4 C 90 % 1014,0 hPa 0,0 l/m 4,7 km/h (1 Bft) W-NW 292 2,9 C 3,5 C
10.10.2012 04:56 4,4 C 90 % 1014,0 hPa 0,0 l/m 1,8 km/h (1 Bft) W-SW 247 2,9 C 4,4 C
10.10.2012 05:01 4,4 C 90 % 1014,0 hPa 0,0 l/m 0,0 km/h (0 Bft) W-NW 292 2,9 C 4,4 C
10.10.2012 05:06 4,4 C 90 % 1013,9 hPa 0,0 l/m 0,0 km/h (0 Bft) W-SW 247 2,9 C 4,4 C
10.10.2012 05:11 4,4 C 90 % 1014,0 hPa 0,0 l/m 0,0 km/h (0 Bft) W 270 2,9 C 4,4 C
10.10.2012 05:16 4,4 C 90 % 1013,9 hPa 0,0 l/m 0,0 km/h (0 Bft) W 270 2,9 C 4,4 C
10.10.2012 05:21 4,4 C 90 % 1014,0 hPa 0,0 l/m 2,5 km/h (1 Bft) W-SW 247 2,9 C 4,4 C
10.10.2012 05:26 4,5 C 90 % 1013,9 hPa 0,0 l/m 2,5 km/h (1 Bft) W 270 3,0 C 4,5 C
10.10.2012 05:31 4,5 C 90 % 1013,8 hPa 0,0 l/m 4,0 km/h (1 Bft) W 270 3,0 C 4,5 C
10.10.2012 05:36 4,6 C 90 % 1013,7 hPa 0,0 l/m 4,0 km/h (1 Bft) W 270 3,1 C 4,6 C
10.10.2012 05:41 4,7 C 90 % 1013,8 hPa 0,0 l/m 6,5 km/h (2 Bft) W-SW 247 3,2 C 3,2 C
10.10.2012 05:46 4,8 C 90 % 1013,8 hPa 0,0 l/m 7,6 km/h (2 Bft) W-SW 247 3,3 C 3,0 C
10.10.2012 05:51 4,8 C 90 % 1013,7 hPa 0,0 l/m 4,0 km/h (1 Bft) W-SW 247 3,3 C 4,8 C
10.10.2012 05:56 4,8 C 90 % 1013,7 hPa 0,0 l/m 0,0 km/h (0 Bft) W 270 3,3 C 4,8 C
10.10.2012 06:01 4,9 C 90 % 1013,7 hPa 0,0 l/m 2,2 km/h (1 Bft) W 270 3,4 C 4,9 C
10.10.2012 06:06 4,9 C 90 % 1013,8 hPa 0,0 l/m 2,5 km/h (1 Bft) W 270 3,4 C 4,9 C
10.10.2012 06:11 4,9 C 90 % 1013,8 hPa 0,0 l/m 0,0 km/h (0 Bft) W 270 3,4 C 4,9 C
10.10.2012 06:16 4,9 C 90 % 1013,7 hPa 0,0 l/m 6,5 km/h (2 Bft) W-NW 292 3,4 C 3,4 C
10.10.2012 06:21 5,0 C 90 % 1013,6 hPa 0,0 l/m 4,0 km/h (1 Bft) W 270 3,5 C 5,0 C
10.10.2012 06:26 5,1 C 90 % 1013,6 hPa 0,0 l/m 4,7 km/h (1 Bft) W-SW 247 3,6 C 4,3 C
10.10.2012 06:31 5,1 C 91 % 1013,6 hPa 0,0 l/m 2,9 km/h (1 Bft) W 270 3,8 C 5,1 C
10.10.2012 06:36 5,2 C 91 % 1013,7 hPa 0,0 l/m 3,6 km/h (1 Bft) NW 315 3,9 C 5,2 C
10.10.2012 06:41 5,3 C 91 % 1013,4 hPa 0,0 l/m 1,4 km/h (1 Bft) W 270 4,0 C 5,3 C
10.10.2012 06:46 5,3 C 91 % 1013,6 hPa 0,0 l/m 1,4 km/h (1 Bft) W-NW 292 4,0 C 5,3 C
10.10.2012 06:51 5,3 C 91 % 1013,5 hPa 0,0 l/m 0,0 km/h (0 Bft) NW 315 4,0 C 5,3 C
10.10.2012 06:56 5,4 C 91 % 1013,5 hPa 0,0 l/m 1,4 km/h (1 Bft) W 270 4,1 C 5,4 C
10.10.2012 07:01 5,4 C 91 % 1013,4 hPa 0,0 l/m 3,6 km/h (1 Bft) W-NW 292 4,1 C 5,4 C
10.10.2012 07:06 5,5 C 91 % 1013,4 hPa 0,0 l/m 5,8 km/h (2 Bft) W-NW 292 4,2 C 4,4 C
10.10.2012 07:11 5,5 C 91 % 1013,5 hPa 0,0 l/m 6,1 km/h (2 Bft) W-SW 247 4,2 C 4,3 C
10.10.2012 07:16 5,5 C 90 % 1013,4 hPa 0,0 l/m 2,9 km/h (1 Bft) W-SW 247 4,0 C 5,5 C
10.10.2012 07:21 5,6 C 90 % 1013,5 hPa 0,0 l/m 4,0 km/h (1 Bft) SW 225 4,1 C 5,6 C
10.10.2012 07:26 5,6 C 90 % 1013,4 hPa 0,0 l/m 4,0 km/h (1 Bft) W-NW 292 4,1 C 5,6 C
10.10.2012 07:31 5,6 C 90 % 1013,5 hPa 0,0 l/m 2,5 km/h (1 Bft) W 270 4,1 C 5,6 C
10.10.2012 07:36 5,6 C 90 % 1013,5 hPa 0,0 l/m 2,5 km/h (1 Bft) W 270 4,1 C 5,6 C
10.10.2012 07:41 5,6 C 90 % 1013,5 hPa 0,0 l/m 5,8 km/h (2 Bft) W 270 4,1 C 4,5 C
10.10.2012 07:46 5,7 C 90 % 1013,5 hPa 0,0 l/m 3,6 km/h (1 Bft) W 270 4,2 C 5,7 C
10.10.2012 07:51 5,8 C 90 % 1013,5 hPa 0,0 l/m 8,6 km/h (2 Bft) W 270 4,3 C 3,9 C
10.10.2012 07:56 5,8 C 90 % 1013,4 hPa 0,0 l/m 4,7 km/h (1 Bft) W-SW 247 4,3 C 5,1 C
10.10.2012 08:01 5,8 C 90 % 1013,4 hPa 0,0 l/m 4,7 km/h (1 Bft) W 270 4,3 C 5,1 C
10.10.2012 08:06 5,8 C 90 % 1013,4 hPa 0,0 l/m 5,8 km/h (2 Bft) W-SW 247 4,3 C 4,7 C
10.10.2012 08:11 5,9 C 90 % 1013,5 hPa 0,0 l/m 8,6 km/h (2 Bft) SW 225 4,4 C 4,0 C
10.10.2012 08:16 5,9 C 90 % 1013,5 hPa 0,0 l/m 2,9 km/h (1 Bft) W-SW 247 4,4 C 5,9 C
10.10.2012 08:21 5,9 C 90 % 1013,5 hPa 0,0 l/m 7,2 km/h (2 Bft) W 270 4,4 C 4,4 C
10.10.2012 08:26 6,1 C 90 % 1013,8 hPa 0,0 l/m 4,7 km/h (1 Bft) N-NW 337 4,6 C 5,4 C
10.10.2012 08:31 6,1 C 90 % 1013,5 hPa 0,0 l/m 7,9 km/h (2 Bft) W 270 4,6 C 4,5 C
10.10.2012 08:36 6,1 C 90 % 1013,5 hPa 0,0 l/m 9,7 km/h (2 Bft) W-SW 247 4,6 C 4,0 C
10.10.2012 08:41 6,3 C 90 % 1013,6 hPa 0,0 l/m 4,7 km/h (1 Bft) W-SW 247 4,8 C 5,7 C
10.10.2012 08:46 6,3 C 90 % 1013,7 hPa 0,0 l/m 0,0 km/h (0 Bft) W-NW 292 4,8 C 6,3 C
10.10.2012 08:51 6,4 C 89 % 1013,8 hPa 0,0 l/m 2,9 km/h (1 Bft) W 270 4,7 C 6,4 C
10.10.2012 08:56 6,4 C 89 % 1013,7 hPa 0,0 l/m 3,6 km/h (1 Bft) W 270 4,7 C 6,4 C
10.10.2012 09:01 6,5 C 90 % 1013,7 hPa 0,0 l/m 4,3 km/h (1 Bft) W-SW 247 5,0 C 6,5 C
10.10.2012 09:06 6,6 C 90 % 1013,8 hPa 0,0 l/m 3,2 km/h (1 Bft) W-SW 247 5,1 C 6,6 C
10.10.2012 09:11 6,7 C 89 % 1013,8 hPa 0,0 l/m 7,2 km/h (2 Bft) W-NW 292 5,0 C 5,3 C
10.10.2012 09:16 6,8 C 89 % 1013,7 hPa 0,0 l/m 9,7 km/h (2 Bft) W-SW 247 5,1 C 4,9 C
10.10.2012 09:21 6,9 C 89 % 1013,7 hPa 0,0 l/m 5,8 km/h (2 Bft) W-NW 292 5,2 C 6,0 C
10.10.2012 09:26 6,9 C 89 % 1013,8 hPa 0,0 l/m 14,8 km/h (3 Bft) W 270 5,2 C 4,1 C
10.10.2012 09:31 6,9 C 89 % 1013,8 hPa 0,0 l/m 4,7 km/h (1 Bft) W 270 5,2 C 6,3 C
10.10.2012 09:36 7,1 C 89 % 1013,9 hPa 0,0 l/m 0,0 km/h (0 Bft) W 270 5,4 C 7,1 C
10.10.2012 09:41 7,2 C 88 % 1013,9 hPa 0,0 l/m 7,9 km/h (2 Bft) W-NW 292 5,3 C 5,7 C
10.10.2012 09:46 7,2 C 88 % 1013,8 hPa 0,0 l/m 12,2 km/h (2 Bft) W-NW 292 5,3 C 4,9 C
10.10.2012 09:51 7,2 C 88 % 1013,9 hPa 0,0 l/m 5,0 km/h (1 Bft) W-NW 292 5,3 C 6,6 C
10.10.2012 09:56 7,3 C 88 % 1014,0 hPa 0,0 l/m 5,8 km/h (2 Bft) W-NW 292 5,4 C 6,4 C
10.10.2012 10:01 7,3 C 88 % 1014,0 hPa 0,0 l/m 5,4 km/h (1 Bft) W-NW 292 5,4 C 6,6 C
10.10.2012 10:06 7,3 C 88 % 1014,1 hPa 0,0 l/m 14,4 km/h (3 Bft) NW 315 5,4 C 4,7 C
10.10.2012 10:11 7,3 C 88 % 1014,2 hPa 0,0 l/m 3,6 km/h (1 Bft) W-NW 292 5,4 C 7,3 C
10.10.2012 10:16 7,3 C 88 % 1014,3 hPa 0,0 l/m 4,7 km/h (1 Bft) W-NW 292 5,4 C 6,8 C
10.10.2012 10:21 7,3 C 88 % 1014,2 hPa 0,0 l/m 9,0 km/h (2 Bft) W 270 5,4 C 5,6 C
10.10.2012 10:26 7,4 C 88 % 1014,0 hPa 0,5 l/m 6,1 km/h (2 Bft) NW 315 5,5 C 6,5 C
10.10.2012 10:31 7,4 C 89 % 1014,1 hPa 0,0 l/m 5,4 km/h (1 Bft) W 270 5,7 C 6,7 C
10.10.2012 10:36 7,4 C 89 % 1014,1 hPa 0,0 l/m 16,9 km/h (3 Bft) NW 315 5,7 C 4,5 C
10.10.2012 10:41 7,4 C 89 % 1014,1 hPa 0,0 l/m 2,9 km/h (1 Bft) W-NW 292 5,7 C 7,4 C
10.10.2012 10:46 7,4 C 89 % 1014,2 hPa 0,0 l/m 4,0 km/h (1 Bft) W-NW 292 5,7 C 7,4 C
10.10.2012 10:51 7,5 C 89 % 1014,1 hPa 0,0 l/m 11,2 km/h (2 Bft) W-NW 292 5,8 C 5,4 C
10.10.2012 10:56 7,5 C 89 % 1014,2 hPa 0,0 l/m 4,0 km/h (1 Bft) W-NW 292 5,8 C 7,5 C
10.10.2012 11:01 7,6 C 89 % 1014,2 hPa 0,0 l/m 10,1 km/h (2 Bft) NW 315 5,9 C 5,7 C
10.10.2012 11:06 7,8 C 89 % 1014,2 hPa 0,0 l/m 7,6 km/h (2 Bft) W-SW 247 6,1 C 6,5 C
10.10.2012 11:11 7,9 C 90 % 1014,2 hPa 0,0 l/m 6,5 km/h (2 Bft) W-NW 292 6,4 C 6,9 C
10.10.2012 11:16 7,9 C 89 % 1014,3 hPa 0,0 l/m 5,0 km/h (1 Bft) N-NW 337 6,2 C 7,4 C
10.10.2012 11:21 8,2 C 89 % 1014,2 hPa 0,0 l/m 5,0 km/h (1 Bft) NW 315 6,5 C 7,7 C
10.10.2012 11:26 8,3 C 89 % 1014,2 hPa 0,0 l/m 8,6 km/h (2 Bft) W-NW 292 6,6 C 6,9 C
10.10.2012 11:31 8,4 C 89 % 1014,2 hPa 0,0 l/m 11,9 km/h (2 Bft) N-NW 337 6,7 C 6,4 C
10.10.2012 11:36 8,5 C 88 % 1014,2 hPa 0,0 l/m 7,9 km/h (2 Bft) W-NW 292 6,6 C 7,3 C
10.10.2012 11:41 8,5 C 88 % 1014,2 hPa 0,0 l/m 8,6 km/h (2 Bft) W-NW 292 6,6 C 7,1 C
10.10.2012 11:46 8,8 C 88 % 1014,2 hPa 0,0 l/m 9,0 km/h (2 Bft) NW 315 6,9 C 7,4 C
10.10.2012 11:51 8,8 C 88 % 1014,1 hPa 0,0 l/m 6,1 km/h (2 Bft) NW 315 6,9 C 8,1 C
10.10.2012 11:56 8,9 C 87 % 1014,2 hPa 0,0 l/m 8,3 km/h (2 Bft) NW 315 6,9 C 7,7 C
10.10.2012 12:01 8,9 C 87 % 1014,3 hPa 0,0 l/m 10,1 km/h (2 Bft) W-NW 292 6,9 C 7,3 C
10.10.2012 12:06 8,9 C 87 % 1014,4 hPa 0,0 l/m 13,7 km/h (3 Bft) NW 315 6,9 C 6,7 C
10.10.2012 12:11 9,0 C 86 % 1014,2 hPa 0,0 l/m 14,4 km/h (3 Bft) W 270 6,8 C 6,8 C
10.10.2012 12:16 9,1 C 86 % 1014,2 hPa 0,0 l/m 4,0 km/h (1 Bft) W 270 6,9 C 9,1 C
10.10.2012 12:21 9,3 C 85 % 1014,2 hPa 0,0 l/m 14,0 km/h (3 Bft) NW 315 6,9 C 7,2 C
10.10.2012 12:26 9,4 C 85 % 1014,0 hPa 0,0 l/m 6,8 km/h (2 Bft) W-SW 247 7,0 C 8,6 C
10.10.2012 12:31 9,7 C 85 % 1014,1 hPa 0,0 l/m 7,6 km/h (2 Bft) N-NW 337 7,3 C 8,7 C
10.10.2012 12:36 9,9 C 84 % 1013,9 hPa 0,0 l/m 6,1 km/h (2 Bft) NW 315 7,3 C 9,3 C
10.10.2012 12:41 10,3 C 83 % 1013,9 hPa 0,0 l/m 4,0 km/h (1 Bft) W-NW 292 7,5 C 10,3 C
10.10.2012 12:46 10,4 C 82 % 1014,0 hPa 0,0 l/m 15,5 km/h (3 Bft) W-SW 247 7,5 C 10,4 C
10.10.2012 12:51 10,5 C 81 % 1014,0 hPa 0,0 l/m 11,5 km/h (2 Bft) W 270 7,4 C 10,5 C
10.10.2012 12:56 10,5 C 80 % 1014,1 hPa 0,0 l/m 12,6 km/h (3 Bft) W-NW 292 7,2 C 10,5 C
10.10.2012 13:01 10,4 C 79 % 1013,9 hPa 0,0 l/m 4,7 km/h (1 Bft) W-NW 292 6,9 C 10,4 C
10.10.2012 13:06 10,6 C 79 % 1013,9 hPa 0,0 l/m 4,0 km/h (1 Bft) W-NW 292 7,1 C 10,6 C
10.10.2012 13:11 10,6 C 79 % 1014,0 hPa 0,0 l/m 12,6 km/h (3 Bft) NW 315 7,1 C 10,6 C
10.10.2012 13:16 10,4 C 78 % 1014,0 hPa 0,0 l/m 8,3 km/h (2 Bft) W-NW 292 6,7 C 10,4 C
10.10.2012 13:21 10,4 C 78 % 1013,8 hPa 0,0 l/m 9,4 km/h (2 Bft) N-NW 337 6,7 C 10,4 C
10.10.2012 13:26 10,4 C 78 % 1013,8 hPa 0,0 l/m 6,8 km/h (2 Bft) NW 315 6,7 C 10,4 C
10.10.2012 13:31 10,7 C 78 % 1013,9 hPa 0,0 l/m 3,6 km/h (1 Bft) N 360 7,0 C 10,7 C
10.10.2012 13:36 10,8 C 77 % 1013,9 hPa 0,0 l/m 11,9 km/h (2 Bft) W-NW 292 6,9 C 10,8 C
10.10.2012 13:41 10,7 C 77 % 1013,8 hPa 0,0 l/m 4,0 km/h (1 Bft) W-NW 292 6,8 C 10,7 C
10.10.2012 13:46 10,6 C 76 % 1013,8 hPa 0,0 l/m 8,3 km/h (2 Bft) W 270 6,5 C 10,6 C
10.10.2012 13:51 10,5 C 77 % 1013,8 hPa 0,0 l/m 9,4 km/h (2 Bft) NW 315 6,6 C 10,5 C
10.10.2012 13:56 10,5 C 77 % 1013,8 hPa 0,0 l/m 10,1 km/h (2 Bft) NW 315 6,6 C 10,5 C
10.10.2012 14:01 10,5 C 75 % 1013,8 hPa 0,0 l/m 11,5 km/h (2 Bft) NW 315 6,3 C 10,5 C
10.10.2012 14:06 10,5 C 76 % 1013,7 hPa 0,0 l/m 4,3 km/h (1 Bft) W 270 6,5 C 10,5 C
10.10.2012 14:11 10,5 C 76 % 1013,8 hPa 0,0 l/m 10,8 km/h (2 Bft) NW 315 6,5 C 10,5 C
10.10.2012 14:16 10,5 C 75 % 1013,8 hPa 0,0 l/m 4,7 km/h (1 Bft) NW 315 6,3 C 10,5 C
10.10.2012 14:21 10,5 C 75 % 1013,8 hPa 0,0 l/m 6,1 km/h (2 Bft) W-NW 292 6,3 C 10,5 C
10.10.2012 14:26 10,4 C 75 % 1013,9 hPa 0,0 l/m 5,4 km/h (1 Bft) W-NW 292 6,2 C 10,4 C
10.10.2012 14:31 10,6 C 75 % 1013,8 hPa 0,0 l/m 7,9 km/h (2 Bft) W-NW 292 6,4 C 10,6 C
10.10.2012 14:36 10,6 C 75 % 1013,8 hPa 0,0 l/m 15,1 km/h (3 Bft) NW 315 6,4 C 10,6 C
10.10.2012 14:41 10,7 C 74 % 1013,7 hPa 0,0 l/m 14,8 km/h (3 Bft) N-NW 337 6,3 C 10,7 C
10.10.2012 14:46 10,8 C 74 % 1013,6 hPa 0,0 l/m 19,1 km/h (3 Bft) W-NW 292 6,4 C 10,8 C
10.10.2012 14:51 10,8 C 73 % 1013,5 hPa 0,0 l/m 11,2 km/h (2 Bft) W-SW 247 6,2 C 10,8 C
10.10.2012 14:56 10,9 C 73 % 1013,5 hPa 0,0 l/m 7,9 km/h (2 Bft) W 270 6,3 C 10,9 C
10.10.2012 15:01 10,9 C 73 % 1013,5 hPa 0,0 l/m 5,8 km/h (2 Bft) W 270 6,3 C 10,9 C
10.10.2012 15:06 10,8 C 73 % 1013,5 hPa 0,0 l/m 7,2 km/h (2 Bft) W-NW 292 6,2 C 10,8 C
10.10.2012 15:11 10,7 C 73 % 1013,6 hPa 0,0 l/m 10,4 km/h (2 Bft) W 270 6,1 C 10,7 C
10.10.2012 15:16 10,6 C 73 % 1013,5 hPa 0,0 l/m 5,8 km/h (2 Bft) W-NW 292 6,0 C 10,6 C
10.10.2012 15:21 10,7 C 74 % 1013,5 hPa 0,0 l/m 3,6 km/h (1 Bft) W-NW 292 6,3 C 10,7 C
10.10.2012 15:26 10,7 C 74 % 1013,5 hPa 0,0 l/m 10,8 km/h (2 Bft) W 270 6,3 C 10,7 C
10.10.2012 15:31 10,8 C 73 % 1013,5 hPa 0,0 l/m 5,4 km/h (1 Bft) W-NW 292 6,2 C 10,8 C
10.10.2012 15:36 10,8 C 73 % 1013,7 hPa 0,0 l/m 4,7 km/h (1 Bft) W-NW 292 6,2 C 10,8 C
10.10.2012 15:41 10,6 C 72 % 1013,5 hPa 0,0 l/m 4,7 km/h (1 Bft) N 360 5,8 C 10,6 C
10.10.2012 15:46 10,6 C 72 % 1013,6 hPa 0,0 l/m 8,6 km/h (2 Bft) W-NW 292 5,8 C 10,6 C
10.10.2012 15:51 10,6 C 72 % 1013,6 hPa 0,0 l/m 9,4 km/h (2 Bft) NW 315 5,8 C 10,6 C
10.10.2012 15:56 10,7 C 72 % 1013,7 hPa 0,0 l/m 6,1 km/h (2 Bft) W 270 5,9 C 10,7 C
10.10.2012 16:01 10,7 C 72 % 1013,6 hPa 0,0 l/m 2,9 km/h (1 Bft) W-NW 292 5,9 C 10,7 C
10.10.2012 16:06 10,8 C 72 % 1013,5 hPa 0,0 l/m 9,7 km/h (2 Bft) W-NW 292 6,0 C 10,8 C
10.10.2012 16:11 11,1 C 73 % 1013,5 hPa 0,0 l/m 4,0 km/h (1 Bft) W 270 6,4 C 11,1 C
10.10.2012 16:16 11,4 C 72 % 1013,5 hPa 0,0 l/m 7,6 km/h (2 Bft) W 270 6,5 C 11,4 C
10.10.2012 16:21 11,5 C 71 % 1013,5 hPa 0,0 l/m 13,3 km/h (3 Bft) W-NW 292 6,4 C 11,5 C
10.10.2012 16:26 11,5 C 70 % 1013,4 hPa 0,0 l/m 8,3 km/h (2 Bft) W-SW 247 6,2 C 11,5 C
10.10.2012 16:31 11,4 C 71 % 1013,6 hPa 0,0 l/m 1,4 km/h (1 Bft) W 270 6,3 C 11,4 C
10.10.2012 16:36 11,3 C 72 % 1013,6 hPa 0,0 l/m 9,0 km/h (2 Bft) W-SW 247 6,4 C 11,3 C
10.10.2012 16:41 11,2 C 72 % 1013,5 hPa 0,0 l/m 6,5 km/h (2 Bft) W 270 6,3 C 11,2 C
10.10.2012 16:46 11,1 C 73 % 1013,5 hPa 0,0 l/m 8,3 km/h (2 Bft) W 270 6,4 C 11,1 C
10.10.2012 16:51 11,1 C 73 % 1013,5 hPa 0,0 l/m 6,8 km/h (2 Bft) W 270 6,4 C 11,1 C
10.10.2012 16:56 11,0 C 74 % 1013,6 hPa 0,0 l/m 3,6 km/h (1 Bft) W-SW 247 6,5 C 11,0 C
10.10.2012 17:01 10,9 C 74 % 1013,5 hPa 0,0 l/m 0,0 km/h (0 Bft) W 270 6,5 C 10,9 C
10.10.2012 17:06 10,9 C 75 % 1013,4 hPa 0,0 l/m 6,5 km/h (2 Bft) W 270 6,6 C 10,9 C
10.10.2012 17:11 10,7 C 75 % 1013,4 hPa 0,0 l/m 14,8 km/h (3 Bft) W-SW 247 6,5 C 10,7 C
10.10.2012 17:16 10,6 C 75 % 1013,3 hPa 0,0 l/m 9,7 km/h (2 Bft) NW 315 6,4 C 10,6 C
10.10.2012 17:21 10,5 C 75 % 1013,3 hPa 0,0 l/m 9,4 km/h (2 Bft) W 270 6,3 C 10,5 C
10.10.2012 17:26 10,5 C 75 % 1013,3 hPa 0,0 l/m 18,4 km/h (3 Bft) W-SW 247 6,3 C 10,5 C
10.10.2012 17:31 10,5 C 75 % 1013,3 hPa 0,0 l/m 7,9 km/h (2 Bft) W 270 6,3 C 10,5 C
10.10.2012 17:36 10,4 C 76 % 1013,3 hPa 0,0 l/m 22,3 km/h (4 Bft) W-SW 247 6,4 C 10,4 C
10.10.2012 17:41 10,4 C 76 % 1013,3 hPa 0,0 l/m 18,4 km/h (3 Bft) W-SW 247 6,4 C 10,4 C
10.10.2012 17:46 10,3 C 76 % 1013,4 hPa 0,0 l/m 13,7 km/h (3 Bft) W-SW 247 6,3 C 10,3 C
10.10.2012 17:51 10,3 C 77 % 1013,4 hPa 0,0 l/m 3,6 km/h (1 Bft) W 270 6,4 C 10,3 C
10.10.2012 17:56 10,2 C 77 % 1013,4 hPa 0,0 l/m 4,7 km/h (1 Bft) W 270 6,4 C 10,2 C
10.10.2012 18:01 10,1 C 78 % 1013,4 hPa 0,5 l/m 10,8 km/h (2 Bft) W-SW 247 6,4 C 10,1 C
10.10.2012 18:06 10,1 C 78 % 1013,4 hPa 0,0 l/m 1,8 km/h (1 Bft) W-SW 247 6,4 C 10,1 C
10.10.2012 18:11 9,9 C 79 % 1013,4 hPa 0,0 l/m 11,5 km/h (2 Bft) W 270 6,4 C 8,3 C
10.10.2012 18:16 9,9 C 79 % 1013,5 hPa 0,0 l/m 6,1 km/h (2 Bft) W-SW 247 6,4 C 9,3 C
10.10.2012 18:21 9,9 C 80 % 1013,5 hPa 0,0 l/m 5,0 km/h (1 Bft) W 270 6,6 C 9,6 C
10.10.2012 18:26 9,8 C 79 % 1013,3 hPa 0,0 l/m 11,9 km/h (2 Bft) W-SW 247 6,3 C 8,1 C
10.10.2012 18:31 9,6 C 79 % 1013,4 hPa 0,0 l/m 8,3 km/h (2 Bft) W-SW 247 6,1 C 8,5 C
10.10.2012 18:36 9,6 C 79 % 1013,5 hPa 0,0 l/m 4,7 km/h (1 Bft) W-NW 292 6,1 C 9,4 C
10.10.2012 18:41 9,6 C 78 % 1013,5 hPa 0,0 l/m 6,5 km/h (2 Bft) W 270 6,0 C 8,9 C
10.10.2012 18:46 9,5 C 78 % 1013,5 hPa 0,0 l/m 6,8 km/h (2 Bft) W-SW 247 5,9 C 8,7 C
10.10.2012 18:51 9,5 C 78 % 1013,5 hPa 0,0 l/m 6,5 km/h (2 Bft) W-NW 292 5,9 C 8,8 C
10.10.2012 18:56 9,5 C 78 % 1013,6 hPa 0,0 l/m 5,8 km/h (2 Bft) W 270 5,9 C 9,0 C
10.10.2012 19:01 9,5 C 78 % 1013,7 hPa 0,0 l/m 6,1 km/h (2 Bft) W 270 5,9 C 8,9 C
10.10.2012 19:06 9,5 C 78 % 1013,5 hPa 0,0 l/m 5,4 km/h (1 Bft) W-NW 292 5,9 C 9,1 C
10.10.2012 19:11 9,4 C 79 % 1013,5 hPa 0,0 l/m 6,5 km/h (2 Bft) W-SW 247 5,9 C 8,7 C
10.10.2012 19:16 9,4 C 79 % 1013,5 hPa 0,0 l/m 7,2 km/h (2 Bft) W-SW 247 5,9 C 8,5 C
10.10.2012 19:21 9,4 C 79 % 1013,8 hPa 0,0 l/m 7,6 km/h (2 Bft) W-NW 292 5,9 C 8,4 C
10.10.2012 19:26 9,4 C 79 % 1013,7 hPa 0,0 l/m 8,6 km/h (2 Bft) W-NW 292 5,9 C 8,2 C
10.10.2012 19:31 9,4 C 80 % 1013,6 hPa 0,0 l/m 7,6 km/h (2 Bft) W-NW 292 6,1 C 8,4 C
10.10.2012 19:36 9,4 C 80 % 1013,9 hPa 0,0 l/m 6,8 km/h (2 Bft) W-SW 247 6,1 C 8,6 C
10.10.2012 19:41 9,4 C 80 % 1013,9 hPa 0,0 l/m 6,8 km/h (2 Bft) W 270 6,1 C 8,6 C
10.10.2012 19:46 9,4 C 80 % 1013,9 hPa 0,0 l/m 0,0 km/h (0 Bft) W 270 6,1 C 9,4 C
10.10.2012 19:51 9,4 C 80 % 1013,9 hPa 0,0 l/m 8,6 km/h (2 Bft) W 270 6,1 C 8,2 C
10.10.2012 19:56 9,4 C 80 % 1014,0 hPa 0,0 l/m 11,2 km/h (2 Bft) NW 315 6,1 C 7,7 C
10.10.2012 20:01 9,4 C 80 % 1014,1 hPa 0,0 l/m 2,5 km/h (1 Bft) W-SW 247 6,1 C 9,4 C
10.10.2012 20:06 9,3 C 81 % 1014,1 hPa 0,0 l/m 8,6 km/h (2 Bft) W 270 6,2 C 8,1 C
10.10.2012 20:11 9,3 C 81 % 1014,1 hPa 0,0 l/m 7,9 km/h (2 Bft) NW 315 6,2 C 8,2 C
10.10.2012 20:16 9,2 C 82 % 1014,1 hPa 0,0 l/m 4,3 km/h (1 Bft) W 270 6,3 C 9,2 C
10.10.2012 20:21 9,1 C 82 % 1014,2 hPa 0,0 l/m 7,9 km/h (2 Bft) W 270 6,2 C 8,0 C
10.10.2012 20:26 8,9 C 83 % 1014,2 hPa 0,0 l/m 8,3 km/h (2 Bft) W-NW 292 6,2 C 7,7 C
10.10.2012 20:31 8,9 C 83 % 1014,0 hPa 0,5 l/m 9,0 km/h (2 Bft) W 270 6,2 C 7,5 C
10.10.2012 20:36 8,9 C 84 % 1014,2 hPa 0,0 l/m 9,4 km/h (2 Bft) W 270 6,3 C 7,4 C
10.10.2012 20:41 8,8 C 84 % 1014,1 hPa 0,0 l/m 7,6 km/h (2 Bft) W-NW 292 6,2 C 7,7 C
10.10.2012 20:46 8,7 C 84 % 1014,1 hPa 0,0 l/m 7,2 km/h (2 Bft) NW 315 6,2 C 7,7 C
10.10.2012 20:51 8,7 C 85 % 1014,2 hPa 0,0 l/m 5,8 km/h (2 Bft) N-NW 337 6,3 C 8,0 C
10.10.2012 20:56 8,6 C 85 % 1014,2 hPa 0,0 l/m 1,4 km/h (1 Bft) NW 315 6,2 C 8,6 C
10.10.2012 21:01 8,6 C 85 % 1014,3 hPa 0,0 l/m 3,2 km/h (1 Bft) N-NW 337 6,2 C 8,6 C
10.10.2012 21:06 8,6 C 85 % 1014,2 hPa 0,0 l/m 2,5 km/h (1 Bft) W 270 6,2 C 8,6 C
10.10.2012 21:11 8,6 C 86 % 1014,2 hPa 0,0 l/m 5,0 km/h (1 Bft) W 270 6,4 C 8,2 C
10.10.2012 21:16 8,5 C 86 % 1014,3 hPa 0,0 l/m 6,1 km/h (2 Bft) W 270 6,3 C 7,7 C
10.10.2012 21:21 8,4 C 86 % 1014,3 hPa 0,0 l/m 5,8 km/h (2 Bft) W 270 6,2 C 7,7 C
10.10.2012 21:26 8,4 C 86 % 1014,4 hPa 0,0 l/m 7,2 km/h (2 Bft) W-NW 292 6,2 C 7,3 C
10.10.2012 21:31 8,2 C 86 % 1014,3 hPa 0,0 l/m 2,2 km/h (1 Bft) W-NW 292 6,0 C 8,2 C
10.10.2012 21:36 8,1 C 86 % 1014,4 hPa 0,0 l/m 2,5 km/h (1 Bft) W 270 5,9 C 8,1 C
10.10.2012 21:41 8,0 C 86 % 1014,4 hPa 0,0 l/m 9,4 km/h (2 Bft) NW 315 5,8 C 6,4 C
10.10.2012 21:46 7,9 C 86 % 1014,4 hPa 0,0 l/m 4,0 km/h (1 Bft) NW 315 5,7 C 7,9 C
10.10.2012 21:51 7,8 C 86 % 1014,5 hPa 0,0 l/m 2,9 km/h (1 Bft) W-NW 292 5,6 C 7,8 C
10.10.2012 21:56 7,8 C 86 % 1014,5 hPa 0,0 l/m 0,0 km/h (0 Bft) W-SW 247 5,6 C 7,8 C
10.10.2012 22:01 7,6 C 87 % 1014,5 hPa 0,0 l/m 4,0 km/h (1 Bft) W 270 5,6 C 7,6 C
10.10.2012 22:06 7,6 C 87 % 1014,5 hPa 0,0 l/m 5,8 km/h (2 Bft) NW 315 5,6 C 6,8 C
10.10.2012 22:11 7,5 C 87 % 1014,5 hPa 0,0 l/m 4,0 km/h (1 Bft) W-NW 292 5,5 C 7,5 C
10.10.2012 22:16 7,4 C 87 % 1014,5 hPa 0,0 l/m 3,6 km/h (1 Bft) W-NW 292 5,4 C 7,4 C
10.10.2012 22:21 7,4 C 88 % 1014,5 hPa 0,0 l/m 4,7 km/h (1 Bft) W-NW 292 5,5 C 6,9 C
10.10.2012 22:26 7,4 C 88 % 1014,5 hPa 0,0 l/m 4,0 km/h (1 Bft) W 270 5,5 C 7,4 C
10.10.2012 22:31 7,3 C 88 % 1014,6 hPa 0,0 l/m 4,0 km/h (1 Bft) W-NW 292 5,4 C 7,3 C
10.10.2012 22:36 7,3 C 88 % 1014,4 hPa 0,0 l/m 2,9 km/h (1 Bft) W 270 5,4 C 7,3 C
10.10.2012 22:41 7,3 C 88 % 1014,5 hPa 0,0 l/m 5,0 km/h (1 Bft) W 270 5,4 C 6,7 C
10.10.2012 22:46 7,2 C 88 % 1014,6 hPa 0,0 l/m 9,0 km/h (2 Bft) W 270 5,3 C 5,5 C
10.10.2012 22:51 7,2 C 88 % 1014,6 hPa 0,0 l/m 2,9 km/h (1 Bft) W-NW 292 5,3 C 7,2 C
10.10.2012 22:56 7,2 C 88 % 1014,7 hPa 0,0 l/m 4,7 km/h (1 Bft) W-NW 292 5,3 C 6,7 C
10.10.2012 23:01 7,2 C 88 % 1014,7 hPa 0,0 l/m 3,2 km/h (1 Bft) W-NW 292 5,3 C 7,2 C
10.10.2012 23:06 7,2 C 88 % 1014,8 hPa 0,0 l/m 3,2 km/h (1 Bft) W 270 5,3 C 7,2 C
10.10.2012 23:11 7,2 C 89 % 1014,8 hPa 0,0 l/m 2,9 km/h (1 Bft) W-NW 292 5,5 C 7,2 C
10.10.2012 23:16 7,2 C 89 % 1014,8 hPa 0,0 l/m 3,2 km/h (1 Bft) W 270 5,5 C 7,2 C
10.10.2012 23:21 7,2 C 89 % 1014,7 hPa 0,0 l/m 4,0 km/h (1 Bft) W 270 5,5 C 7,2 C
10.10.2012 23:26 7,2 C 89 % 1014,8 hPa 0,0 l/m 0,0 km/h (0 Bft) W-NW 292 5,5 C 7,2 C
10.10.2012 23:31 7,2 C 89 % 1014,8 hPa 0,0 l/m 4,0 km/h (1 Bft) W 270 5,5 C 7,2 C
10.10.2012 23:36 7,1 C 89 % 1014,9 hPa 0,0 l/m 2,2 km/h (1 Bft) W 270 5,4 C 7,1 C
10.10.2012 23:41 7,1 C 89 % 1014,8 hPa 0,0 l/m 1,4 km/h (1 Bft) W 270 5,4 C 7,1 C
10.10.2012 23:46 7,0 C 89 % 1014,8 hPa 0,0 l/m 5,0 km/h (1 Bft) NW 315 5,3 C 6,4 C
10.10.2012 23:51 7,0 C 89 % 1014,9 hPa 0,0 l/m 2,5 km/h (1 Bft) W-NW 292 5,3 C 7,0 C
10.10.2012 23:56 6,9 C 89 % 1014,9 hPa 0,0 l/m 3,2 km/h (1 Bft) W 270 5,2 C 6,9 C
_ Min-Zeit 04:41 16:26 17:16 - 01:41 - - 04:41 04:46
Minimum _ 4,4 C 70 % 1013,3 hPa - 0,0 km/h (0 Bft) - - 2,7 C 2,3 C
_ Max-Zeit 16:21 06:31 23:36 10:26 17:36 - - 12:41 16:21
Maximum _ 11,5 C 91 % 1014,9 hPa 0,5 l/m 22,3 km/h
W-SW (4 Bft)
- - 7,5 C 11,5 C
Durchschnitt _ 7,6 C 84 % 1013,9 hPa #1,6 l/m 5,9 km/h (2 Bft) W - 5,1 C 7,2 C
(c) by David Heller